This is the latest recevied weather packets stored in our database for station/object TA2EE-10. If no packets are shown the sender has not sent any weather packets the latest 10 day(s).
| Time | Temp. | Humidity | Pressure | Rain* | Wind** | Luminosity | Snow |
|---|---|---|---|---|---|---|---|
| 1778141700 | 29.44° C | 23% | 918 hPa | - | - | 0 W/m² | - |
| 1778139578 | 30° C | 22% | 918 hPa | - | - | 0 W/m² | - |
| 1778137454 | 29.44° C | 23% | 918 hPa | - | - | 0 W/m² | - |
| 1778135326 | 28.33° C | 25% | 918 hPa | - | - | 0 W/m² | - |
| 1778135259 | 28.33° C | 25% | 918 hPa | - | - | 0 W/m² | - |
| 1778133136 | 26.11° C | 27% | 918 hPa | - | - | 0 W/m² | - |
| 1778131012 | 22.78° C | 30% | 918 hPa | - | - | 0 W/m² | - |
| 1778128890 | 20.56° C | 34% | 918 hPa | - | - | 0 W/m² | - |
| 1778126768 | 20° C | 34% | 918 hPa | - | - | 0 W/m² | - |
| 1778124646 | 20° C | 34% | 917 hPa | - | - | 0 W/m² | - |
| 1778122523 | 21.11° C | 33% | 917 hPa | - | - | 0 W/m² | - |
| 1778120401 | 21.67° C | 32% | 917 hPa | - | - | 0 W/m² | - |
| 1778118278 | 21.67° C | 33% | 917 hPa | - | - | 0 W/m² | - |
| 1778116155 | 22.22° C | 32% | 917 hPa | - | - | 0 W/m² | - |
| 1778114032 | 22.78° C | 32% | 917 hPa | - | - | 0 W/m² | - |
| 1778111910 | 23.89° C | 31% | 917 hPa | - | - | 0 W/m² | - |
| 1778109788 | 23.89° C | 30% | 916 hPa | - | - | 0 W/m² | - |
| 1778107666 | 24.44° C | 30% | 916 hPa | - | - | 0 W/m² | - |
| 1778105544 | 23.89° C | 31% | 916 hPa | - | - | 0 W/m² | - |
| 1778103422 | 24.44° C | 31% | 916 hPa | - | - | 0 W/m² | - |
| 1778101300 | 25° C | 32% | 916 hPa | - | - | 0 W/m² | - |
| 1778099177 | 25.56° C | 34% | 916 hPa | - | - | 0 W/m² | - |
| 1778097055 | 25.56° C | 32% | 916 hPa | - | - | 0 W/m² | - |
| 1778094933 | 25.56° C | 28% | 916 hPa | - | - | 0 W/m² | - |
| 1778092811 | 25.56° C | 29% | 916 hPa | - | - | 0 W/m² | - |
* Rain since midnight (hover to see other rain measurements)
** Current wind speed in m/s (hover to see current wind gust speed)